Time;durP1;ratioP1;P1;durP2;ratioP2;P2;SDS_P1;SDS_P2;PMS_P1;PMS_P2;Temp;Humidity;BMP_temperature;BMP_pressure;BME280_temperature;BME280_humidity;BME280_pressure;Samples;Min_cycle;Max_cycle;Signal;HPM_P1;HPM_P2
2023/01/21 00:00:03;;;;;;;12.90;8.83;;;;;;;3.25;54.83;99152.09;7002524;28;20270;-78
2023/01/21 00:03:25;;;;;;;16.53;9.67;;;;;;;3.07;54.99;99157.38;7001828;28;20251;-78
2023/01/21 00:06:48;;;;;;;12.97;9.43;;;;;;;3.22;54.87;99160.38;7005391;28;20314;-78
2023/01/21 00:10:11;;;;;;;11.83;9.10;;;;;;;3.01;55.12;99131.34;7010828;28;20597;-78
2023/01/21 00:13:33;;;;;;;14.83;9.60;;;;;;;2.97;55.67;99171.75;7029983;28;20689;-78
2023/01/21 00:16:55;;;;;;;13.07;9.10;;;;;;;2.96;55.30;99154.91;7014672;28;20312;-78
2023/01/21 00:20:16;;;;;;;12.50;8.93;;;;;;;3.01;55.71;99162.47;7002452;28;20217;-78
2023/01/21 00:23:38;;;;;;;19.37;9.80;;;;;;;3.30;54.90;99173.78;7003509;28;20570;-78
2023/01/21 00:27:01;;;;;;;11.10;9.20;;;;;;;3.29;54.30;99167.63;7006618;28;20340;-78
2023/01/21 00:30:22;;;;;;;16.10;9.77;;;;;;;3.34;53.40;99175.16;7007856;28;20229;-79
2023/01/21 00:33:44;;;;;;;14.27;9.03;;;;;;;3.07;54.07;99177.88;7007341;28;20238;-78
2023/01/21 00:37:06;;;;;;;12.10;8.83;;;;;;;2.79;54.63;99171.69;7006674;28;20758;-78
2023/01/21 00:40:28;;;;;;;12.47;9.03;;;;;;;2.74;55.19;99166.00;7007730;28;20198;-78
2023/01/21 00:43:50;;;;;;;11.53;9.00;;;;;;;2.67;55.98;99180.03;7007757;28;20205;-78
2023/01/21 00:47:12;;;;;;;11.83;9.63;;;;;;;2.65;55.41;99185.47;7006835;28;20315;-78
2023/01/21 00:50:33;;;;;;;14.03;9.83;;;;;;;2.26;56.51;99161.81;7014402;28;20313;-78
2023/01/21 00:53:55;;;;;;;11.93;9.30;;;;;;;2.61;56.26;99188.59;7028975;28;20212;-78
2023/01/21 00:57:16;;;;;;;9.47;8.40;;;;;;;2.68;56.12;99189.69;7039720;28;20699;-78
2023/01/21 01:00:39;;;;;;;13.07;8.13;;;;;;;2.57;55.58;99200.50;7042994;28;20200;-78
2023/01/21 01:04:01;;;;;;;8.37;7.37;;;;;;;2.37;56.40;99190.91;7050443;28;20252;-78
2023/01/21 01:07:22;;;;;;;12.03;8.50;;;;;;;2.36;55.22;99159.97;7056773;28;20225;-78
2023/01/21 01:10:44;;;;;;;10.77;9.20;;;;;;;2.48;55.93;99177.44;7031700;28;20316;-78
2023/01/21 01:14:05;;;;;;;12.43;10.17;;;;;;;2.60;55.00;99182.41;7036692;28;20256;-78
2023/01/21 01:17:28;;;;;;;10.67;8.93;;;;;;;2.38;55.73;99203.22;7037421;28;20318;-79
2023/01/21 01:20:51;;;;;;;11.37;8.83;;;;;;;2.26;55.65;99157.31;7034017;28;20351;-79
2023/01/21 01:24:12;;;;;;;11.53;8.13;;;;;;;2.59;55.05;99204.69;7031270;28;20510;-79
2023/01/21 01:27:34;;;;;;;9.43;7.17;;;;;;;2.56;54.62;99210.34;7033335;28;20225;-79
2023/01/21 01:30:56;;;;;;;8.53;7.20;;;;;;;2.57;54.19;99205.81;7033176;28;20618;-78
2023/01/21 01:34:19;;;;;;;11.87;8.10;;;;;;;2.28;55.44;99219.22;7032814;28;20272;-78
2023/01/21 01:37:40;;;;;;;11.43;7.73;;;;;;;2.16;55.14;99209.72;7032380;28;20708;-79
2023/01/21 01:41:02;;;;;;;10.90;8.10;;;;;;;2.01;54.95;99216.44;7033349;28;20261;-78
2023/01/21 01:44:53;;;;;;;12.47;8.50;;;;;;;2.12;56.04;99228.78;7032160;28;20209;-79
2023/01/21 01:48:17;;;;;;;14.30;7.83;;;;;;;2.21;55.48;99234.06;7032844;28;20225;-79
2023/01/21 01:51:46;;;;;;;9.67;7.40;;;;;;;2.22;55.02;99233.09;7032715;28;20281;-79
2023/01/21 01:55:09;;;;;;;11.67;7.37;;;;;;;2.02;54.38;99231.41;7032252;28;20257;-79
2023/01/21 01:58:31;;;;;;;10.77;7.63;;;;;;;2.03;54.82;99246.41;7032557;28;20358;-78
2023/01/21 02:01:53;;;;;;;9.17;6.57;;;;;;;1.69;55.45;99215.06;7031727;28;20262;-78
2023/01/21 02:05:15;;;;;;;8.60;6.40;;;;;;;2.18;54.31;99241.50;7031264;28;20200;-78
2023/01/21 02:08:37;;;;;;;10.40;7.37;;;;;;;2.17;54.47;99240.66;7031305;28;20265;-78
2023/01/21 02:12:00;;;;;;;8.20;7.23;;;;;;;2.14;53.85;99221.47;7031450;28;20220;-78
2023/01/21 02:15:27;;;;;;;8.57;7.57;;;;;;;2.21;53.78;99226.09;7031538;28;20724;-78
2023/01/21 02:18:55;;;;;;;10.00;7.33;;;;;;;1.70;55.90;99238.00;7032828;28;20761;-78
2023/01/21 02:22:22;;;;;;;10.57;8.10;;;;;;;1.71;55.41;99255.66;7031691;28;20196;-78
2023/01/21 02:26:27;;;;;;;8.40;7.17;;;;;;;1.81;55.61;99256.47;7030615;28;20253;-78
2023/01/21 02:30:19;;;;;;;9.07;6.80;;;;;;;2.05;54.80;99267.53;7030983;28;20232;-78
2023/01/21 02:33:54;;;;;;;14.07;7.00;;;;;;;1.43;54.37;99269.72;7030459;28;20197;-78
2023/01/21 02:37:20;;;;;;;10.07;7.37;;;;;;;1.58;54.77;99255.06;7030492;28;20269;-79
2023/01/21 02:40:58;;;;;;;9.30;6.60;;;;;;;1.57;55.23;99270.19;7030804;28;20595;-78
2023/01/21 02:44:24;;;;;;;8.60;7.03;;;;;;;1.33;54.22;99231.69;7030328;28;20245;-78
2023/01/21 02:47:52;;;;;;;9.10;6.80;;;;;;;1.35;55.46;99261.59;7031494;28;20225;-77
2023/01/21 02:51:14;;;;;;;10.33;7.20;;;;;;;1.07;55.13;99273.81;7030447;28;20208;-78
2023/01/21 02:54:51;;;;;;;9.47;7.17;;;;;;;1.40;54.80;99277.97;7031571;28;20651;-78
2023/01/21 02:58:15;;;;;;;9.83;7.30;;;;;;;1.51;54.82;99275.19;7030483;28;20361;-78
2023/01/21 03:01:54;;;;;;;9.53;7.40;;;;;;;1.11;55.79;99269.06;7030037;28;20232;-79
2023/01/21 03:05:21;;;;;;;10.43;7.30;;;;;;;1.14;55.60;99277.59;7028427;28;20747;-79
2023/01/21 03:08:50;;;;;;;10.93;6.57;;;;;;;1.65;54.96;99272.97;7029989;28;20288;-78
2023/01/21 03:12:24;;;;;;;9.00;6.47;;;;;;;0.85;54.85;99281.13;7029364;28;20235;-79
2023/01/21 03:19:34;;;;;;;6.97;6.00;;;;;;;1.10;55.67;99289.50;7029431;28;20189;-79
2023/01/21 03:22:59;;;;;;;8.27;6.03;;;;;;;0.94;55.71;99286.47;7029721;28;20327;-78
2023/01/21 03:26:28;;;;;;;7.40;6.50;;;;;;;1.24;54.84;99294.41;7029057;28;20307;-78
2023/01/21 03:29:52;;;;;;;8.63;6.67;;;;;;;0.40;55.62;99285.91;7029467;28;20660;-78
2023/01/21 03:33:14;;;;;;;9.47;6.37;;;;;;;0.51;56.47;99298.25;7029314;28;20268;-79
2023/01/21 03:36:40;;;;;;;9.27;6.77;;;;;;;0.68;56.09;99309.13;7028621;28;20221;-79
2023/01/21 03:40:08;;;;;;;8.10;6.17;;;;;;;1.02;55.53;99302.56;7029476;28;20209;-78
2023/01/21 03:43:31;;;;;;;7.27;6.53;;;;;;;0.95;55.56;99306.72;7028683;28;20192;-79
2023/01/21 03:46:59;;;;;;;8.73;6.53;;;;;;;1.27;54.85;99296.81;7028747;28;20327;-79
2023/01/21 03:50:23;;;;;;;6.90;6.17;;;;;;;1.15;54.99;99300.56;7028550;28;20213;-79
2023/01/21 03:53:45;;;;;;;6.40;5.80;;;;;;;1.26;53.91;99299.59;7029021;28;20209;-79
2023/01/21 03:57:06;;;;;;;7.87;6.00;;;;;;;1.31;54.66;99308.81;7028550;28;20252;-79
2023/01/21 04:00:29;;;;;;;8.53;7.03;;;;;;;1.28;53.83;99303.81;7032958;28;20265;-79
2023/01/21 04:03:51;;;;;;;7.70;6.90;;;;;;;1.43;53.41;99306.94;7034588;28;20608;-78
2023/01/21 04:07:12;;;;;;;7.70;6.87;;;;;;;0.69;54.54;99280.78;7034412;28;20280;-79
2023/01/21 04:10:34;;;;;;;11.03;6.73;;;;;;;0.85;55.69;99291.75;7034366;28;20633;-79
2023/01/21 04:13:55;;;;;;;11.07;6.80;;;;;;;1.31;54.61;99308.81;7034093;28;20295;-79
2023/01/21 04:17:19;;;;;;;8.03;6.40;;;;;;;1.18;54.42;99307.41;7034167;28;20256;-78
2023/01/21 04:20:40;;;;;;;6.60;6.00;;;;;;;1.03;54.02;99308.72;7034235;28;20231;-78
2023/01/21 04:24:02;;;;;;;8.33;5.80;;;;;;;0.97;54.29;99307.47;7034123;28;20844;-78
2023/01/21 04:27:23;;;;;;;7.20;6.40;;;;;;;1.12;54.09;99310.59;7033540;28;20312;-78
2023/01/21 04:30:46;;;;;;;10.47;6.17;;;;;;;0.69;54.10;99305.50;7035339;28;20644;-78
2023/01/21 04:34:09;;;;;;;7.73;6.23;;;;;;;0.44;56.06;99310.38;7033740;28;20575;-79
2023/01/21 04:37:32;;;;;;;8.73;6.30;;;;;;;0.91;55.20;99318.63;7033384;28;20225;-78
2023/01/21 04:40:53;;;;;;;7.03;6.27;;;;;;;0.46;53.65;99314.56;7033253;28;20346;-79
2023/01/21 04:44:15;;;;;;;7.23;6.53;;;;;;;0.22;55.66;99303.38;7033067;28;20213;-78
2023/01/21 04:47:40;;;;;;;7.37;6.20;;;;;;;0.69;54.51;99297.53;7032308;28;20292;-78
2023/01/21 04:51:05;;;;;;;8.67;6.30;;;;;;;0.50;54.29;99323.09;7032606;28;20350;-79
2023/01/21 04:54:26;;;;;;;8.17;6.63;;;;;;;-0.50;55.58;99340.38;7032286;28;20205;-78
2023/01/21 04:57:48;;;;;;;6.90;6.20;;;;;;;-0.10;57.43;99331.69;7033231;28;20225;-78
2023/01/21 05:01:09;;;;;;;8.53;6.67;;;;;;;-0.18;57.25;99343.06;7033073;28;20268;-78
2023/01/21 05:04:31;;;;;;;8.57;6.20;;;;;;;-0.07;56.37;99343.84;7032576;28;20217;-78
2023/01/21 05:07:54;;;;;;;6.60;6.00;;;;;;;-0.28;56.89;99307.69;7032691;28;20251;-78
2023/01/21 05:11:18;;;;;;;8.00;6.73;;;;;;;0.69;56.25;99341.78;7031020;28;20316;-79
2023/01/21 05:14:40;;;;;;;10.23;6.20;;;;;;;0.33;54.72;99342.25;7032233;28;20330;-78
2023/01/21 05:18:01;;;;;;;8.30;6.53;;;;;;;0.01;55.60;99349.38;7032423;28;20229;-79
2023/01/21 05:21:22;;;;;;;8.43;6.37;;;;;;;-0.22;57.25;99345.94;7032275;28;20278;-79
2023/01/21 05:24:45;;;;;;;9.30;7.00;;;;;;;-0.37;56.89;99333.13;7031696;28;20212;-79
2023/01/21 05:28:07;;;;;;;8.23;6.70;;;;;;;-0.08;57.16;99346.66;7032359;28;20293;-79
2023/01/21 05:31:29;;;;;;;5.90;5.30;;;;;;;0.44;55.06;99350.16;7031967;28;20264;-79
2023/01/21 05:34:50;;;;;;;13.37;6.77;;;;;;;0.03;55.01;99358.91;7031307;28;20205;-78
2023/01/21 05:38:12;;;;;;;10.77;6.13;;;;;;;-0.16;54.62;99365.81;7031963;28;20378;-78
2023/01/21 05:41:35;;;;;;;9.10;6.60;;;;;;;-0.22;55.44;99298.25;7031717;28;20261;-78
2023/01/21 05:44:56;;;;;;;9.37;7.07;;;;;;;0.23;54.58;99359.88;7031242;28;20354;-78
2023/01/21 05:48:18;;;;;;;8.37;6.53;;;;;;;-0.10;56.03;99378.56;7031527;28;20766;-78
2023/01/21 05:51:40;;;;;;;6.67;5.97;;;;;;;0.46;54.82;99380.03;7031233;28;20292;-78
2023/01/21 05:55:01;;;;;;;8.30;5.97;;;;;;;-0.34;53.59;99310.84;7031277;28;20680;-78
2023/01/21 05:58:25;;;;;;;6.80;6.10;;;;;;;-0.01;54.84;99394.56;7031439;28;20229;-78
2023/01/21 06:01:46;;;;;;;9.37;8.03;;;;;;;0.11;53.75;99395.34;7030926;28;20296;-80
2023/01/21 06:05:08;;;;;;;10.57;8.80;;;;;;;0.01;55.17;99392.63;7031058;28;20266;-79
2023/01/21 06:08:29;;;;;;;12.20;8.60;;;;;;;0.24;55.35;99396.06;7030915;28;20362;-80
2023/01/21 06:11:51;;;;;;;11.77;8.53;;;;;;;0.19;53.79;99399.06;7031282;28;20838;-79
2023/01/21 06:15:14;;;;;;;14.37;8.60;;;;;;;0.33;54.14;99385.53;7030487;28;20315;-79
2023/01/21 06:18:35;;;;;;;13.53;9.37;;;;;;;-0.30;54.09;99399.69;7031069;28;20308;-79
2023/01/21 06:21:57;;;;;;;14.27;9.90;;;;;;;-0.44;55.16;99406.09;7031057;28;20209;-79
2023/01/21 06:25:18;;;;;;;17.77;11.03;;;;;;;-1.07;57.04;99384.66;7029182;28;20203;-80
2023/01/21 06:28:40;;;;;;;16.37;10.13;;;;;;;-0.59;56.51;99404.63;7030624;28;20316;-79
2023/01/21 06:32:03;;;;;;;15.80;10.13;;;;;;;-0.60;56.85;99362.41;7030078;28;20311;-79
2023/01/21 06:35:24;;;;;;;18.83;12.20;;;;;;;0.21;55.86;99407.75;7029908;28;20258;-79
2023/01/21 06:38:46;;;;;;;16.13;10.93;;;;;;;0.07;55.29;99396.59;7033113;28;20327;-79
2023/01/21 06:42:07;;;;;;;12.37;8.27;;;;;;;-0.35;55.08;99402.72;7038312;28;20287;-78
2023/01/21 06:45:29;;;;;;;14.40;8.07;;;;;;;-0.11;55.86;99425.41;7030047;28;20723;-79
2023/01/21 06:48:52;;;;;;;17.03;7.77;;;;;;;-0.25;54.55;99440.75;7031181;28;20319;-79
2023/01/21 06:52:14;;;;;;;9.30;7.23;;;;;;;-0.16;55.59;99445.31;7031258;28;20229;-79
2023/01/21 06:55:35;;;;;;;10.03;7.40;;;;;;;-0.22;54.76;99439.66;7030610;28;20204;-80
2023/01/21 06:58:57;;;;;;;10.37;7.03;;;;;;;-0.39;55.95;99445.44;7031269;28;20308;-79
2023/01/21 07:02:18;;;;;;;12.23;8.10;;;;;;;-0.05;55.95;99467.31;7032718;28;20201;-79
2023/01/21 07:05:41;;;;;;;10.43;8.07;;;;;;;0.34;54.53;99471.22;7026990;28;20233;-79
2023/01/21 07:09:03;;;;;;;12.40;7.30;;;;;;;-0.27;53.78;99435.56;7011410;28;20274;-79
2023/01/21 07:12:25;;;;;;;13.80;8.57;;;;;;;-0.37;56.13;99470.84;7014524;28;20227;-79
2023/01/21 07:15:46;;;;;;;11.67;8.00;;;;;;;0.11;56.34;99483.69;7015558;28;20259;-80
2023/01/21 07:19:08;;;;;;;11.97;8.43;;;;;;;0.02;55.57;99484.41;7007706;28;20300;-80
2023/01/21 07:22:34;;;;;;;9.90;7.93;;;;;;;-0.43;55.23;99492.53;7006435;28;20270;-80
2023/01/21 07:25:55;;;;;;;9.53;8.37;;;;;;;-0.37;56.03;99494.69;7016306;28;20202;-80
2023/01/21 07:29:17;;;;;;;13.67;9.67;;;;;;;-0.46;57.37;99499.88;7004220;28;20217;-81
2023/01/21 07:32:38;;;;;;;16.97;12.17;;;;;;;-0.22;57.09;99497.94;7003647;28;20312;-81
2023/01/21 07:36:00;;;;;;;13.47;9.90;;;;;;;0.06;57.12;99500.94;7002717;28;20269;-80
2023/01/21 07:39:22;;;;;;;14.07;9.27;;;;;;;0.07;56.07;99499.97;7005634;28;20292;-79
2023/01/21 07:42:44;;;;;;;17.37;11.10;;;;;;;-0.08;56.29;99464.94;7010753;28;20201;-80
2023/01/21 07:46:05;;;;;;;36.77;11.33;;;;;;;0.08;56.64;99505.13;7029072;28;20362;-80
2023/01/21 07:49:27;;;;;;;13.47;10.20;;;;;;;0.43;56.82;99500.47;7021789;28;20194;-80
2023/01/21 07:52:48;;;;;;;14.73;10.47;;;;;;;0.48;56.93;99513.38;7013670;28;20802;-80
2023/01/21 07:56:12;;;;;;;15.37;11.03;;;;;;;0.49;58.17;99517.72;7025706;28;20355;-79
2023/01/21 07:59:33;;;;;;;22.70;12.00;;;;;;;0.32;58.26;99513.78;7007303;28;20647;-79
2023/01/21 08:02:55;;;;;;;20.07;13.37;;;;;;;0.70;58.58;99514.16;7020733;28;20217;-79
2023/01/21 08:06:16;;;;;;;17.80;12.57;;;;;;;0.69;57.21;99507.16;7011886;28;20221;-79
2023/01/21 08:09:38;;;;;;;18.30;12.70;;;;;;;0.88;58.22;99507.31;7021882;28;20334;-79
2023/01/21 08:13:02;;;;;;;20.63;13.13;;;;;;;0.74;58.61;99501.47;7001902;28;20229;-79
2023/01/21 08:16:24;;;;;;;16.87;11.90;;;;;;;0.62;58.50;99490.06;7001116;28;20707;-79
2023/01/21 08:19:45;;;;;;;19.47;13.33;;;;;;;0.77;58.55;99514.50;7001772;28;20285;-79
2023/01/21 08:23:07;;;;;;;19.33;12.47;;;;;;;1.21;57.27;99519.56;7001825;28;20266;-78
2023/01/21 08:26:28;;;;;;;20.03;16.00;;;;;;;0.66;58.39;99478.22;7000912;28;20290;-79
2023/01/21 08:29:51;;;;;;;16.50;11.90;;;;;;;1.11;57.96;99513.34;7002090;28;20219;-79
2023/01/21 08:33:13;;;;;;;20.17;12.93;;;;;;;1.09;58.15;99497.56;7001235;28;20226;-79
2023/01/21 08:36:37;;;;;;;17.47;13.03;;;;;;;1.69;56.79;99513.59;6999586;28;20229;-79
2023/01/21 08:39:58;;;;;;;15.67;12.17;;;;;;;1.61;56.87;99504.59;7002580;28;20201;-79
2023/01/21 08:43:20;;;;;;;22.07;14.10;;;;;;;1.56;56.94;99507.66;7001918;28;20297;-79
2023/01/21 08:46:43;;;;;;;21.37;14.07;;;;;;;1.48;57.44;99488.84;7005510;28;20366;-79
2023/01/21 08:50:06;;;;;;;18.23;13.17;;;;;;;1.19;56.98;99463.09;7007570;28;20266;-78
2023/01/21 08:53:27;;;;;;;24.67;15.00;;;;;;;1.62;57.12;99496.50;7007675;28;20226;-79
2023/01/21 08:56:49;;;;;;;23.03;15.67;;;;;;;1.49;57.40;99506.47;7008782;28;20359;-79
2023/01/21 09:00:13;;;;;;;19.93;14.40;;;;;;;1.89;57.30;99518.00;7005749;28;20235;-79
2023/01/21 09:03:35;;;;;;;20.80;14.53;;;;;;;1.82;57.42;99508.03;7006329;28;20201;-78
2023/01/21 09:06:57;;;;;;;21.27;14.23;;;;;;;1.83;58.08;99501.75;7005270;28;20225;-78
2023/01/21 09:13:56;;;;;;;27.87;16.80;;;;;;;2.43;56.79;99510.47;7014240;28;20277;-79
2023/01/21 09:17:18;;;;;;;24.30;14.47;;;;;;;2.24;56.26;99521.06;7005488;28;20255;-79
2023/01/21 09:20:41;;;;;;;26.43;16.67;;;;;;;2.27;55.93;99517.28;7024637;28;20205;-79
2023/01/21 09:24:02;;;;;;;24.77;15.90;;;;;;;2.83;56.12;99516.56;7033487;28;20297;-79
2023/01/21 09:27:26;;;;;;;28.30;18.17;;;;;;;2.68;55.74;99458.53;7008732;28;20278;-79
2023/01/21 09:30:47;;;;;;;29.00;18.73;;;;;;;2.43;56.20;99475.06;7028678;28;20240;-79
2023/01/21 09:34:10;;;;;;;26.63;17.20;;;;;;;1.96;56.89;99451.84;7011468;28;20697;-79
2023/01/21 09:37:33;;;;;;;26.90;19.13;;;;;;;2.08;57.94;99496.78;7013390;28;20277;-79
2023/01/21 09:40:55;;;;;;;28.13;19.37;;;;;;;2.60;57.62;99525.78;7005370;28;20680;-79
2023/01/21 09:44:22;;;;;;;31.47;19.97;;;;;;;2.84;56.57;99491.59;7004942;28;20273;-79
2023/01/21 09:47:45;;;;;;;31.63;20.00;;;;;;;3.47;55.73;99530.97;7017875;28;20231;-79
2023/01/21 09:51:14;;;;;;;36.67;22.70;;;;;;;3.05;56.70;99505.63;7012969;28;20230;-79
2023/01/21 09:54:38;;;;;;;31.53;18.73;;;;;;;2.80;56.88;99537.28;7017235;28;20283;-79
2023/01/21 09:58:07;;;;;;;33.10;21.27;;;;;;;2.75;57.73;99537.72;7010831;28;20232;-79
2023/01/21 10:01:32;;;;;;;36.77;21.43;;;;;;;3.51;55.75;99531.50;7007957;28;20270;-79
2023/01/21 10:05:05;;;;;;;31.47;19.33;;;;;;;2.92;56.32;99542.38;7005717;28;20328;-78
2023/01/21 10:08:33;;;;;;;34.47;20.37;;;;;;;3.26;56.41;99524.13;7003950;28;20225;-79
2023/01/21 10:12:11;;;;;;;34.03;21.53;;;;;;;3.63;56.43;99533.03;7003521;28;20316;-79
2023/01/21 10:15:42;;;;;;;35.63;21.90;;;;;;;3.47;56.48;99541.63;7008356;28;20198;-78
2023/01/21 10:19:04;;;;;;;36.60;21.20;;;;;;;3.11;56.09;99536.19;7009267;28;20225;-77
2023/01/21 10:22:27;;;;;;;31.00;19.60;;;;;;;3.49;56.18;99536.97;7010407;28;20683;-79
2023/01/21 10:25:50;;;;;;;30.10;20.07;;;;;;;3.63;56.19;99514.38;7005207;28;20362;-79
2023/01/21 10:29:17;;;;;;;30.30;21.10;;;;;;;3.52;55.66;99520.72;7008150;28;20283;-80
2023/01/21 10:32:39;;;;;;;31.40;19.80;;;;;;;3.54;55.87;99534.72;7033502;28;20213;-79
2023/01/21 10:36:13;;;;;;;31.47;19.43;;;;;;;4.28;56.25;99531.13;7032152;28;20201;-80
2023/01/21 10:39:43;;;;;;;44.90;28.23;;;;;;;4.35;54.52;99523.34;7032025;28;20302;-79
2023/01/21 10:43:07;;;;;;;37.67;23.77;;;;;;;4.21;54.63;99523.84;7028728;28;20650;-81
2023/01/21 10:46:35;;;;;;;44.00;24.67;;;;;;;4.46;54.54;99502.63;7030045;28;20285;-81
2023/01/21 10:50:00;;;;;;;39.83;22.67;;;;;;;4.10;56.50;99514.22;7032492;28;20280;-81
2023/01/21 10:53:27;;;;;;;34.63;22.37;;;;;;;3.92;57.22;99449.28;7032001;28;20315;-84
2023/01/21 10:56:54;;;;;;;31.80;20.13;;;;;;;4.73;56.89;99483.88;7031743;28;20308;-82
2023/01/21 11:00:20;;;;;;;41.27;23.10;;;;;;;4.69;55.70;99493.22;7034026;28;20335;-81
2023/01/21 11:03:45;;;;;;;37.10;21.87;;;;;;;4.82;56.57;99501.69;7030891;28;20239;-83
2023/01/21 11:07:09;;;;;;;33.80;21.77;;;;;;;4.91;54.01;99515.97;7032819;28;20308;-83
2023/01/21 11:10:31;;;;;;;35.13;23.67;;;;;;;4.76;54.22;99504.09;7008630;28;20246;-81
2023/01/21 11:13:55;;;;;;;35.93;23.50;;;;;;;4.93;54.02;99498.78;7003286;28;20261;-80
2023/01/21 11:17:30;;;;;;;36.70;22.50;;;;;;;5.05;54.17;99512.75;7004442;28;20711;-80
2023/01/21 11:20:56;;;;;;;36.03;19.93;;;;;;;4.48;54.89;99514.00;7009489;28;20201;-81
2023/01/21 11:24:23;;;;;;;33.07;22.03;;;;;;;4.73;54.87;99494.56;7003007;28;20555;-80
2023/01/21 11:27:44;;;;;;;35.87;22.63;;;;;;;4.97;55.29;99489.47;7003288;28;20222;-82
2023/01/21 11:31:10;;;;;;;31.43;21.07;;;;;;;4.84;54.90;99488.19;7003979;28;20260;-80
2023/01/21 11:34:33;;;;;;;37.37;23.27;;;;;;;4.73;54.76;99483.88;7003273;28;20189;-81
2023/01/21 11:37:56;;;;;;;39.10;25.67;;;;;;;4.76;54.94;99482.75;7002552;28;20229;-81
2023/01/21 11:41:20;;;;;;;46.43;26.93;;;;;;;5.01;55.15;99469.47;7001905;28;20209;-81
2023/01/21 11:44:51;;;;;;;40.27;26.50;;;;;;;4.54;55.33;99425.28;7002121;28;20364;-81
2023/01/21 11:48:19;;;;;;;36.10;20.67;;;;;;;4.91;55.29;99473.22;7002920;28;20311;-81
2023/01/21 11:51:42;;;;;;;30.27;19.00;;;;;;;4.53;56.22;99474.34;7003114;28;20242;-81
2023/01/21 11:55:19;;;;;;;31.47;18.70;;;;;;;4.76;55.65;99448.88;7001682;28;20843;-81
2023/01/21 11:58:41;;;;;;;31.07;18.43;;;;;;;4.71;55.44;99466.34;7004070;28;20699;-81
2023/01/21 12:02:06;;;;;;;30.03;20.30;;;;;;;4.76;55.93;99467.56;7005826;28;20254;-81
2023/01/21 12:05:31;;;;;;;29.83;19.57;;;;;;;4.20;55.96;99357.53;7004937;28;20294;-81
2023/01/21 12:08:55;;;;;;;28.67;18.00;;;;;;;5.20;55.17;99463.94;7002587;28;20326;-81
2023/01/21 12:12:31;;;;;;;28.60;17.93;;;;;;;5.06;55.21;99450.28;7002580;28;20381;-81
2023/01/21 12:16:06;;;;;;;25.90;16.80;;;;;;;5.45;54.51;99448.91;7002151;28;20195;-81
2023/01/21 12:19:47;;;;;;;24.10;15.17;;;;;;;4.55;53.23;99330.00;7005158;28;20284;-81
2023/01/21 12:23:25;;;;;;;18.93;13.20;;;;;;;5.02;53.13;99444.41;7008374;28;20271;-81
2023/01/21 12:26:51;;;;;;;20.67;14.00;;;;;;;5.28;53.05;99410.53;7006613;28;20602;-81
2023/01/21 12:30:22;;;;;;;21.97;14.40;;;;;;;4.67;53.57;99393.69;7008255;28;20196;-81
2023/01/21 12:33:47;;;;;;;20.73;14.20;;;;;;;5.01;53.47;99444.59;7007947;28;20234;-81
2023/01/21 12:37:13;;;;;;;23.47;15.43;;;;;;;4.95;53.84;99434.50;7007227;28;20221;-81
2023/01/21 12:40:39;;;;;;;23.57;15.10;;;;;;;4.65;54.81;99446.41;7009829;28;20342;-81
2023/01/21 12:44:11;;;;;;;21.70;13.10;;;;;;;4.68;53.57;99408.75;7054862;28;20228;-84
2023/01/21 12:47:40;;;;;;;22.23;14.17;;;;;;;4.96;52.99;99446.88;7064329;28;20249;-82
2023/01/21 12:51:05;;;;;;;17.27;12.57;;;;;;;4.92;53.31;99449.03;7064356;28;20192;-81
2023/01/21 12:54:34;;;;;;;20.00;13.47;;;;;;;5.16;53.15;99451.88;7024228;28;20230;-81
2023/01/21 12:57:58;;;;;;;21.73;14.83;;;;;;;4.99;53.12;99446.56;7034884;28;20221;-81
2023/01/21 13:01:31;;;;;;;20.90;14.00;;;;;;;4.66;55.39;99453.44;7035751;28;20343;-81
2023/01/21 13:04:58;;;;;;;22.70;13.97;;;;;;;5.05;54.33;99451.28;7007400;28;20565;-80
2023/01/21 13:08:33;;;;;;;21.77;13.13;;;;;;;4.85;54.31;99452.44;7008298;28;20278;-81
2023/01/21 13:11:56;;;;;;;21.63;14.27;;;;;;;5.31;54.31;99452.16;7007841;28;20228;-81
2023/01/21 13:15:21;;;;;;;22.87;14.57;;;;;;;5.16;53.51;99401.09;7007704;28;20206;-82
2023/01/21 13:18:43;;;;;;;21.90;14.60;;;;;;;5.05;54.34;99446.78;7026959;28;20845;-81
2023/01/21 13:22:09;;;;;;;22.57;14.13;;;;;;;5.29;53.60;99451.47;7031149;28;20189;-81
2023/01/21 13:25:38;;;;;;;19.93;13.53;;;;;;;4.92;54.72;99435.66;7006099;28;20277;-80
2023/01/21 13:29:03;;;;;;;20.70;13.57;;;;;;;5.07;54.27;99439.44;7006125;28;20358;-82
2023/01/21 13:32:37;;;;;;;21.30;13.27;;;;;;;4.54;55.80;99440.47;7018735;28;20258;-80
2023/01/21 13:36:08;;;;;;;22.70;15.33;;;;;;;4.81;56.03;99456.41;7012532;28;20242;-82
2023/01/21 13:39:38;;;;;;;23.60;15.00;;;;;;;4.92;55.71;99457.03;7028818;28;20280;-84
2023/01/21 13:43:05;;;;;;;23.17;14.00;;;;;;;5.32;55.15;99472.56;7018600;28;20190;-82
2023/01/21 13:46:46;;;;;;;21.40;15.20;;;;;;;5.27;55.43;99450.78;7007325;28;20275;-81
2023/01/21 13:50:16;;;;;;;24.83;14.80;;;;;;;5.18;55.40;99468.59;7006817;28;20667;-82
2023/01/21 13:53:49;;;;;;;20.50;13.83;;;;;;;5.12;55.53;99477.25;7010733;28;20273;-82
2023/01/21 13:57:32;;;;;;;20.57;14.43;;;;;;;4.49;56.22;99424.88;7010018;28;20745;-82
2023/01/21 14:00:56;;;;;;;21.67;15.80;;;;;;;5.27;56.15;99469.50;7026650;28;20344;-81
2023/01/21 14:04:31;;;;;;;15.93;12.70;;;;;;;4.92;55.59;99475.75;7036426;28;20283;-81
2023/01/21 14:07:55;;;;;;;21.57;13.10;;;;;;;4.93;55.19;99473.88;7025920;28;20322;-80
2023/01/21 14:11:20;;;;;;;17.07;12.50;;;;;;;5.27;54.67;99473.03;7005924;28;20613;-83
2023/01/21 14:15:09;;;;;;;18.33;12.77;;;;;;;4.98;54.05;99463.59;7005494;28;20273;-80
2023/01/21 14:18:52;;;;;;;18.93;13.40;;;;;;;5.07;54.98;99489.41;7007029;28;20245;-81
2023/01/21 14:22:25;;;;;;;21.93;14.03;;;;;;;5.58;53.86;99476.91;7006093;28;20324;-80
2023/01/21 14:26:00;;;;;;;20.50;13.40;;;;;;;5.34;54.40;99491.94;7005281;28;20276;-82
2023/01/21 14:29:27;;;;;;;19.73;13.03;;;;;;;5.26;54.05;99475.84;7005071;28;20261;-82
2023/01/21 14:32:53;;;;;;;18.53;13.27;;;;;;;5.73;53.39;99491.38;7005130;28;20216;-82
2023/01/21 14:36:18;;;;;;;21.70;13.13;;;;;;;4.94;53.68;99457.72;7004451;28;20216;-82
2023/01/21 14:39:49;;;;;;;22.37;15.17;;;;;;;4.99;54.29;99500.00;7005057;28;20380;-82
2023/01/21 14:43:18;;;;;;;19.03;11.47;;;;;;;4.71;53.44;99466.34;7006624;28;20291;-82
2023/01/21 14:46:40;;;;;;;18.83;12.20;;;;;;;5.27;53.63;99489.06;7006299;28;20274;-82
2023/01/21 14:50:03;;;;;;;17.33;12.00;;;;;;;5.60;52.50;99509.69;7010860;28;20266;-80
2023/01/21 14:53:26;;;;;;;15.77;11.40;;;;;;;5.17;53.46;99509.69;7006669;28;20320;-81
2023/01/21 14:56:52;;;;;;;17.60;11.63;;;;;;;5.20;52.87;99516.56;7006882;28;20368;-80
2023/01/21 15:00:22;;;;;;;12.03;9.00;;;;;;;4.48;53.46;99523.84;7007749;28;20567;-81
2023/01/21 15:03:48;;;;;;;13.80;8.87;;;;;;;4.63;53.64;99517.84;7007253;28;20291;-81
2023/01/21 15:07:17;;;;;;;13.03;9.50;;;;;;;4.40;53.01;99508.56;7011013;28;20227;-80
2023/01/21 15:10:40;;;;;;;13.17;9.20;;;;;;;4.90;52.11;99533.00;7008270;28;20220;-80
2023/01/21 15:14:13;;;;;;;13.43;9.17;;;;;;;4.49;52.43;99506.84;7010930;28;20272;-81
2023/01/21 15:17:45;;;;;;;12.27;8.70;;;;;;;4.76;52.09;99530.81;7010616;28;20313;-80
2023/01/21 15:21:36;;;;;;;14.60;10.07;;;;;;;5.04;51.70;99537.78;7012039;28;20206;-81
2023/01/21 15:25:17;;;;;;;12.53;8.40;;;;;;;4.03;53.41;99520.28;7011897;28;20226;-81
2023/01/21 15:28:44;;;;;;;14.03;9.20;;;;;;;4.94;52.88;99539.69;7011472;28;20225;-80
2023/01/21 15:32:18;;;;;;;12.87;9.50;;;;;;;5.26;51.48;99534.66;7011309;28;20240;-81
2023/01/21 15:35:40;;;;;;;12.67;9.03;;;;;;;5.29;51.58;99545.03;7009740;28;20264;-81
2023/01/21 15:39:09;;;;;;;16.93;9.97;;;;;;;5.25;51.10;99547.19;7007850;28;20316;-81
2023/01/21 15:42:39;;;;;;;12.63;9.00;;;;;;;5.28;51.41;99543.34;7004752;28;20309;-81
2023/01/21 15:46:15;;;;;;;12.07;8.57;;;;;;;5.35;51.19;99542.59;7003770;28;20671;-83
2023/01/21 15:49:47;;;;;;;12.07;9.83;;;;;;;5.00;51.47;99545.28;7004206;28;20359;-81
2023/01/21 15:53:27;;;;;;;14.93;10.40;;;;;;;4.94;52.06;99521.84;7004906;28;20809;-81
2023/01/21 15:56:57;;;;;;;16.07;11.00;;;;;;;4.87;51.55;99539.47;7009063;28;20581;-82
2023/01/21 16:00:33;;;;;;;16.23;10.43;;;;;;;5.14;51.90;99543.91;7010848;28;20262;-81
2023/01/21 16:04:07;;;;;;;13.73;10.00;;;;;;;5.23;51.61;99518.91;7010276;28;20205;-81
2023/01/21 16:07:34;;;;;;;15.10;10.80;;;;;;;5.17;52.10;99559.63;7010074;28;20225;-81